F/V Moorea — FMIT — position and weather

sailwx.info

Track history (hours):
 
Tides and Currents Weather Stations Pressure Air Temp Water Temp Dewpoint Dewpoint Depression Visibility Wind Speed Wind Dir Waves Ship Positions

F/V Moorea

Last reported at 2015-Jul-30 01:33 UTC. Time now 2015-Jul-30 18:14 UTC.
Position N 46°22' W 002°08'.

Length 18 m.

Type: Fishing. MMSI: 228239900.

Date/timePositionNaut miles runAvg speedWind from/ knotsBaromVisibWave heightAir tempDewpointWater temp
2015-Jul-30 01:33N 46°22' W 002°08'9 9.4
2015-Jul-30 00:33N 46°26' W 001°56'7 7.1
2015-Jul-29 23:33N 46°30' W 001°48'0 0.1
2015-Jul-29 22:33N 46°30' W 001°48'6 5.5
2015-Jul-29 21:33N 46°27' W 001°54'50 1.2
2015-Jul-28 03:26N 47°06' W 002°40'9 9.9
2015-Jul-28 02:33N 47°15' W 002°36'5 4.7
2015-Jul-28 01:33N 47°18' W 002°31'0 0.1
2015-Jul-28 00:33N 47°18' W 002°31'5 0.1
2015-Jul-26 03:17N 47°15' W 002°37'5 7.0
2015-Jul-26 02:33N 47°18' W 002°31'0 0.1
2015-Jul-26 01:33N 47°18' W 002°31'55 2.2
2015-Jul-25 00:33N 46°27' W 002°02'9 8.9
2015-Jul-24 23:33N 46°28' W 001°49'2 2.0
2015-Jul-24 22:33N 46°30' W 001°47'0 0.0
2015-Jul-24 21:33N 46°30' W 001°47'6 6.1
2015-Jul-24 20:34N 46°26' W 001°55'38 2.5
2015-Jul-24 05:18N 46°15' W 002°47'7 1.5
2015-Jul-24 00:33N 46°08' W 002°48'1 0.5
2015-Jul-23 23:21N 46°08' W 002°48'1 0.5
2015-Jul-23 22:14N 46°08' W 002°48'30 1.4
2015-Jul-23 01:07N 46°27' W 002°15'5 9.4
2015-Jul-23 00:33N 46°27' W 002°07'9 9.4
2015-Jul-22 23:33N 46°28' W 001°54'5 4.7
2015-Jul-22 22:33N 46°30' W 001°48'0 0.0
2015-Jul-22 21:34N 46°30' W 001°48'7 6.9
2015-Jul-22 20:33N 46°27' W 001°56'41 2.4
2015-Jul-22 03:12N 46°25' W 002°57'1115.3
2015-Jul-22 02:31N 46°14' W 002°52'10 2.3
2015-Jul-21 22:09N 46°24' W 002°58'3 1.5
2015-Jul-21 20:26N 46°26' W 002°58'3 3.2
2015-Jul-21 19:25N 46°24' W 002°55'3 3.6
2015-Jul-21 18:32N 46°21' W 002°53'2 1.7
2015-Jul-21 17:28N 46°22' W 002°55'2 1.7
2015-Jul-21 16:13N 46°24' W 002°55'2 1.8
2015-Jul-21 15:11N 46°24' W 002°58'1 1.1
2015-Jul-21 14:04N 46°23' W 002°57'2 3.7
2015-Jul-21 13:30N 46°25' W 002°57'2 1.7
2015-Jul-21 12:28N 46°23' W 002°57'6 1.2
2015-Jul-21 07:31N 46°17' W 002°58'1 0.3
2015-Jul-21 05:33N 46°17' W 002°57'1 0.7
2015-Jul-21 04:11N 46°17' W 002°59'3 3.4
2015-Jul-21 03:27N 46°18' W 002°55'7 7.2
2015-Jul-21 02:28N 46°19' W 002°45'8 8.0
2015-Jul-21 01:25N 46°21' W 002°34'8 8.6
2015-Jul-21 00:26N 46°23' W 002°22'10 8.7
2015-Jul-20 23:17N 46°25' W 002°08'6 8.6
2015-Jul-20 22:33N 46°27' W 001°59'8 8.4
2015-Jul-20 21:33N 46°29' W 001°47'0 0.1
2015-Jul-20 20:33N 46°29' W 001°47'9 8.9
2015-Jul-20 19:33N 46°25' W 001°59'42 6.9
2015-Jul-20 13:29N 46°19' W 002°59'2 0.7
2015-Jul-20 10:33N 46°17' W 002°57'  
Track history (hours):
 
Tides and Currents Weather Stations Pressure Air Temp Water Temp Dewpoint Dewpoint Depression Visibility Wind Speed Wind Dir Waves Ship Positions

F/V Moorea

Last reported at 2015-Jul-30 01:33 UTC. Time now 2015-Jul-30 18:14 UTC.
Position N 46°22' W 002°08'.

Length 18 m.

Type: Fishing. MMSI: 228239900.

Date/timePositionNaut miles runAvg speedWind from/ knotsBaromVisibWave heightAir tempDewpointWater temp
2015-Jul-30 01:33N 46°22' W 002°08'9 9.4
2015-Jul-30 00:33N 46°26' W 001°56'7 7.1
2015-Jul-29 23:33N 46°30' W 001°48'0 0.1
2015-Jul-29 22:33N 46°30' W 001°48'6 5.5
2015-Jul-29 21:33N 46°27' W 001°54'50 1.2
2015-Jul-28 03:26N 47°06' W 002°40'9 9.9
2015-Jul-28 02:33N 47°15' W 002°36'5 4.7
2015-Jul-28 01:33N 47°18' W 002°31'0 0.1
2015-Jul-28 00:33N 47°18' W 002°31'5 0.1
2015-Jul-26 03:17N 47°15' W 002°37'5 7.0
2015-Jul-26 02:33N 47°18' W 002°31'0 0.1
2015-Jul-26 01:33N 47°18' W 002°31'55 2.2
2015-Jul-25 00:33N 46°27' W 002°02'9 8.9
2015-Jul-24 23:33N 46°28' W 001°49'2 2.0
2015-Jul-24 22:33N 46°30' W 001°47'0 0.0
2015-Jul-24 21:33N 46°30' W 001°47'6 6.1
2015-Jul-24 20:34N 46°26' W 001°55'38 2.5
2015-Jul-24 05:18N 46°15' W 002°47'7 1.5
2015-Jul-24 00:33N 46°08' W 002°48'1 0.5
2015-Jul-23 23:21N 46°08' W 002°48'1 0.5
2015-Jul-23 22:14N 46°08' W 002°48'30 1.4
2015-Jul-23 01:07N 46°27' W 002°15'5 9.4
2015-Jul-23 00:33N 46°27' W 002°07'9 9.4
2015-Jul-22 23:33N 46°28' W 001°54'5 4.7
2015-Jul-22 22:33N 46°30' W 001°48'0 0.0
2015-Jul-22 21:34N 46°30' W 001°48'7 6.9
2015-Jul-22 20:33N 46°27' W 001°56'41 2.4
2015-Jul-22 03:12N 46°25' W 002°57'1115.3
2015-Jul-22 02:31N 46°14' W 002°52'10 2.3
2015-Jul-21 22:09N 46°24' W 002°58'3 1.5
2015-Jul-21 20:26N 46°26' W 002°58'3 3.2
2015-Jul-21 19:25N 46°24' W 002°55'3 3.6
2015-Jul-21 18:32N 46°21' W 002°53'2 1.7
2015-Jul-21 17:28N 46°22' W 002°55'2 1.7
2015-Jul-21 16:13N 46°24' W 002°55'2 1.8
2015-Jul-21 15:11N 46°24' W 002°58'1 1.1
2015-Jul-21 14:04N 46°23' W 002°57'2 3.7
2015-Jul-21 13:30N 46°25' W 002°57'2 1.7
2015-Jul-21 12:28N 46°23' W 002°57'6 1.2
2015-Jul-21 07:31N 46°17' W 002°58'1 0.3
2015-Jul-21 05:33N 46°17' W 002°57'1 0.7
2015-Jul-21 04:11N 46°17' W 002°59'3 3.4
2015-Jul-21 03:27N 46°18' W 002°55'7 7.2
2015-Jul-21 02:28N 46°19' W 002°45'8 8.0
2015-Jul-21 01:25N 46°21' W 002°34'8 8.6
2015-Jul-21 00:26N 46°23' W 002°22'10 8.7
2015-Jul-20 23:17N 46°25' W 002°08'6 8.6
2015-Jul-20 22:33N 46°27' W 001°59'8 8.4
2015-Jul-20 21:33N 46°29' W 001°47'0 0.1
2015-Jul-20 20:33N 46°29' W 001°47'9 8.9
2015-Jul-20 19:33N 46°25' W 001°59'42 6.9
2015-Jul-20 13:29N 46°19' W 002°59'2 0.7
2015-Jul-20 10:33N 46°17' W 002°57'  

Dump ship's entire track history